Time;durP1;ratioP1;P1;durP2;ratioP2;P2;SDS_P1;SDS_P2;PMS_P1;PMS_P2;Temp;Humidity;BMP_temperature;BMP_pressure;BME280_temperature;BME280_humidity;BME280_pressure;Samples;Min_cycle;Max_cycle;Signal;HPM_P1;HPM_P2
2021/03/09 00:01:25;;;;;;;30.85;13.45;;;4.00;99.90;;;;;;5054560;28;20045;-67
2021/03/09 00:03:52;;;;;;;23.23;11.23;;;4.00;99.90;;;;;;5083629;28;20055;-67
2021/03/09 00:06:21;;;;;;;27.88;13.07;;;4.00;99.90;;;;;;5091034;28;20039;-67
2021/03/09 00:08:58;;;;;;;27.67;12.55;;;4.00;99.90;;;;;;5095163;28;20055;-65
2021/03/09 00:11:25;;;;;;;27.65;13.18;;;4.00;99.90;;;;;;5094649;28;20113;-65
2021/03/09 00:13:51;;;;;;;30.70;12.57;;;4.00;99.90;;;;;;5094600;28;20472;-65
2021/03/09 00:16:19;;;;;;;28.02;12.15;;;4.00;99.90;;;;;;5080106;28;20040;-67
2021/03/09 00:18:56;;;;;;;31.45;12.43;;;4.00;99.90;;;;;;5094965;28;20143;-66
2021/03/09 00:21:26;;;;;;;28.67;12.05;;;4.00;99.90;;;;;;5094424;28;20044;-65
2021/03/09 00:24:10;;;;;;;22.95;9.77;;;4.00;99.90;;;;;;5094190;28;20047;-65
2021/03/09 00:26:40;;;;;;;19.58;10.02;;;4.00;99.90;;;;;;5094304;28;20044;-65
2021/03/09 00:29:06;;;;;;;29.33;13.27;;;4.00;99.90;;;;;;5094719;28;20040;-65
2021/03/09 00:31:52;;;;;;;27.08;11.88;;;4.00;99.90;;;;;;5094392;28;20484;-66
2021/03/09 00:34:37;;;;;;;27.15;11.80;;;4.00;99.90;;;;;;5078156;28;20051;-66
2021/03/09 00:37:05;;;;;;;27.40;11.52;;;4.00;99.90;;;;;;5094034;28;20053;-65
2021/03/09 00:43:55;;;;;;;25.95;11.73;;;4.00;99.90;;;;;;5094092;28;20035;-65
2021/03/09 00:46:30;;;;;;;20.50;10.30;;;4.00;99.90;;;;;;5089987;28;20036;-65
2021/03/09 00:49:02;;;;;;;22.08;10.77;;;4.00;99.90;;;;;;5093973;28;20171;-65
2021/03/09 00:51:28;;;;;;;21.42;10.75;;;4.00;99.90;;;;;;5093654;28;20039;-65
2021/03/09 00:53:58;;;;;;;29.27;14.13;;;4.10;99.90;;;;;;5094647;28;20403;-66
2021/03/09 00:56:35;;;;;;;30.25;13.07;;;4.10;99.90;;;;;;5074315;28;20036;-66
2021/03/09 00:59:01;;;;;;;28.30;13.55;;;4.10;99.90;;;;;;5073157;28;20040;-65
2021/03/09 01:01:28;;;;;;;24.88;12.38;;;4.10;99.90;;;;;;5094051;28;20062;-66
2021/03/09 01:04:02;;;;;;;26.55;12.60;;;4.00;99.90;;;;;;5073901;28;20056;-66
2021/03/09 01:06:31;;;;;;;25.20;11.90;;;4.10;99.90;;;;;;5089474;28;20121;-66
2021/03/09 01:09:10;;;;;;;27.80;13.55;;;4.10;99.90;;;;;;5093249;28;20036;-67
2021/03/09 01:11:39;;;;;;;28.02;12.23;;;4.10;99.90;;;;;;5088549;28;20089;-66
2021/03/09 01:14:06;;;;;;;29.90;13.27;;;4.00;99.90;;;;;;5093503;28;20036;-67
2021/03/09 01:16:38;;;;;;;22.63;11.07;;;4.10;99.90;;;;;;5093616;28;20183;-67
2021/03/09 01:19:35;;;;;;;24.90;11.63;;;4.10;99.90;;;;;;5087763;28;20035;-67
2021/03/09 01:22:05;;;;;;;20.33;9.68;;;4.10;99.90;;;;;;5059446;28;20052;-67
2021/03/09 01:24:33;;;;;;;23.00;12.05;;;4.20;99.90;;;;;;5075636;28;20048;-67
2021/03/09 01:27:00;;;;;;;20.67;10.55;;;4.20;99.90;;;;;;5093313;28;20040;-67
2021/03/09 01:29:32;;;;;;;24.88;11.68;;;4.30;99.90;;;;;;5093415;28;20044;-67
2021/03/09 01:32:05;;;;;;;21.50;10.88;;;4.10;99.90;;;;;;5093647;28;20062;-67
2021/03/09 01:34:42;;;;;;;24.48;11.48;;;4.20;99.90;;;;;;5077181;28;20040;-67
2021/03/09 01:37:09;;;;;;;24.92;10.90;;;4.20;99.90;;;;;;5088330;28;20469;-67
2021/03/09 01:47:03;;;;;;;20.08;9.10;;;4.20;99.90;;;;;;5087983;28;20059;-67
2021/03/09 01:54:02;;;;;;;18.65;8.57;;;4.20;99.90;;;;;;5093068;28;20043;-67
2021/03/09 01:56:36;;;;;;;20.13;10.15;;;4.20;99.90;;;;;;5093238;28;20062;-67
2021/03/09 01:59:07;;;;;;;18.23;9.50;;;4.20;99.90;;;;;;5055336;28;20119;-67
2021/03/09 02:01:35;;;;;;;22.90;10.43;;;4.30;99.90;;;;;;5089053;28;20079;-67
2021/03/09 02:04:11;;;;;;;23.13;9.95;;;4.20;99.90;;;;;;5088691;28;20125;-67
2021/03/09 02:06:43;;;;;;;20.02;9.48;;;4.30;99.90;;;;;;5072284;28;20459;-67
2021/03/09 02:09:22;;;;;;;24.20;9.93;;;4.30;99.90;;;;;;5072711;28;20044;-67
2021/03/09 02:12:02;;;;;;;26.17;11.63;;;4.30;99.90;;;;;;5057678;28;20504;-67
2021/03/09 02:22:15;;;;;;;20.63;9.05;;;4.30;99.90;;;;;;5076496;28;20052;-67
2021/03/09 02:25:20;;;;;;;19.08;9.18;;;4.30;99.90;;;;;;5075360;28;20075;-67
2021/03/09 02:31:38;;;;;;;20.33;9.45;;;4.30;99.90;;;;;;5076182;28;20040;-67
2021/03/09 02:34:21;;;;;;;21.45;8.88;;;4.30;99.90;;;;;;5056516;28;20037;-67
2021/03/09 02:37:17;;;;;;;18.38;8.63;;;4.30;99.90;;;;;;5071443;28;20058;-67
2021/03/09 02:39:46;;;;;;;19.05;9.13;;;4.30;99.90;;;;;;5070527;28;20545;-67
2021/03/09 02:42:31;;;;;;;20.77;9.52;;;4.30;99.90;;;;;;5071783;28;20041;-67
2021/03/09 02:49:11;;;;;;;17.85;8.75;;;4.30;99.90;;;;;;5075921;28;20052;-67
2021/03/09 02:51:47;;;;;;;18.63;9.25;;;4.40;99.90;;;;;;5073965;28;20090;-67
2021/03/09 02:54:20;;;;;;;21.88;10.45;;;4.40;99.90;;;;;;5076073;28;20045;-67
2021/03/09 02:56:52;;;;;;;20.17;9.23;;;4.40;99.90;;;;;;5075918;28;20045;-67
2021/03/09 03:07:12;;;;;;;17.67;7.88;;;4.30;99.90;;;;;;5035991;28;20409;-67
2021/03/09 03:14:09;;;;;;;17.80;8.82;;;4.40;99.90;;;;;;5055468;28;20035;-67
2021/03/09 03:16:42;;;;;;;21.20;9.65;;;4.40;99.90;;;;;;5051428;28;20473;-67
2021/03/09 03:19:12;;;;;;;20.05;8.95;;;4.40;99.90;;;;;;5034782;28;20477;-67
2021/03/09 03:21:51;;;;;;;17.55;8.00;;;4.50;99.90;;;;;;5050688;28;20045;-67
2021/03/09 03:24:37;;;;;;;18.58;8.57;;;4.40;99.90;;;;;;5055312;28;20041;-67
2021/03/09 03:27:24;;;;;;;19.00;8.27;;;4.40;99.90;;;;;;5036969;28;20049;-67
2021/03/09 03:29:56;;;;;;;18.80;8.63;;;4.50;99.90;;;;;;5055516;28;20060;-67
2021/03/09 03:32:23;;;;;;;18.55;8.93;;;4.50;99.90;;;;;;5055055;28;20041;-67
2021/03/09 03:39:19;;;;;;;17.77;8.75;;;4.50;99.90;;;;;;5055252;28;20052;-67
2021/03/09 03:41:54;;;;;;;;;;;4.50;99.90;;;;;;5054663;28;20123;-67
2021/03/09 03:44:27;;;;;;;15.98;7.50;;;4.50;99.90;;;;;;5055118;28;20292;-67
2021/03/09 03:46:55;;;;;;;17.20;8.38;;;4.50;99.90;;;;;;5054976;28;20077;-67
2021/03/09 03:49:29;;;;;;;18.08;8.40;;;4.50;99.90;;;;;;5055154;28;20040;-67
2021/03/09 03:59:39;;;;;;;18.08;6.95;;;4.50;99.90;;;;;;5054650;28;20094;-67
2021/03/09 04:02:36;;;;;;;16.67;6.75;;;4.60;99.90;;;;;;5053485;28;20036;-67
2021/03/09 04:05:05;;;;;;;17.27;7.82;;;4.60;99.90;;;;;;5050172;28;20093;-67
2021/03/09 04:07:36;;;;;;;19.55;8.40;;;4.60;99.90;;;;;;5094672;28;20043;-67
2021/03/09 04:17:02;;;;;;;19.00;8.38;;;4.60;99.90;;;;;;5093161;28;20050;-67
2021/03/09 04:19:31;;;;;;;19.38;8.15;;;4.60;99.90;;;;;;5094444;28;20381;-66
2021/03/09 04:22:00;;;;;;;17.95;7.60;;;4.60;99.90;;;;;;5094674;28;20047;-66
2021/03/09 04:24:34;;;;;;;18.02;8.30;;;4.60;99.90;;;;;;5094987;28;20068;-67
2021/03/09 04:27:00;;;;;;;17.67;8.48;;;4.70;99.90;;;;;;5087614;28;20063;-67
2021/03/09 04:29:28;;;;;;;24.27;9.73;;;4.60;99.90;;;;;;5094609;28;20036;-67
2021/03/09 04:32:09;;;;;;;14.93;7.53;;;4.70;99.90;;;;;;5093370;28;20048;-67
2021/03/09 04:34:56;;;;;;;14.75;7.68;;;4.70;99.90;;;;;;5094158;28;20059;-67
2021/03/09 04:37:24;;;;;;;15.55;6.95;;;4.70;99.90;;;;;;5088458;28;20051;-66
2021/03/09 04:40:17;;;;;;;15.05;7.95;;;4.70;99.90;;;;;;5074304;28;20142;-66
2021/03/09 04:42:49;;;;;;;16.02;7.65;;;4.70;99.90;;;;;;5081063;28;20491;-66
2021/03/09 04:49:33;;;;;;;14.60;5.65;;;4.70;99.90;;;;;;5093759;28;20077;-66
2021/03/09 04:52:02;;;;;;;15.23;7.18;;;4.70;99.90;;;;;;5087800;28;20051;-66
2021/03/09 04:54:35;;;;;;;14.95;7.10;;;4.70;99.90;;;;;;5089031;28;20044;-66
2021/03/09 04:57:01;;;;;;;19.92;7.90;;;4.70;99.90;;;;;;5085500;28;20043;-66
2021/03/09 04:59:33;;;;;;;16.08;7.45;;;4.70;99.90;;;;;;5076283;28;20051;-66
2021/03/09 05:02:00;;;;;;;13.25;6.82;;;4.70;99.90;;;;;;5093436;28;20048;-67
2021/03/09 05:04:31;;;;;;;13.80;6.68;;;4.80;99.90;;;;;;5094617;28;20487;-67
2021/03/09 05:07:01;;;;;;;14.60;7.22;;;4.70;99.90;;;;;;5053129;28;20041;-66
2021/03/09 05:10:00;;;;;;;13.55;6.70;;;4.80;99.90;;;;;;5053534;28;20374;-66
2021/03/09 05:27:09;;;;;;;12.70;6.68;;;4.90;99.90;;;;;;5033656;28;20092;-66
2021/03/09 05:29:38;;;;;;;12.60;6.50;;;4.90;99.90;;;;;;5048607;28;20037;-67
2021/03/09 05:32:09;;;;;;;15.57;7.00;;;4.90;99.90;;;;;;5047662;28;20064;-67
2021/03/09 05:35:12;;;;;;;18.08;6.78;;;4.90;99.90;;;;;;5053417;28;20529;-66
2021/03/09 05:37:38;;;;;;;12.68;6.28;;;4.90;99.90;;;;;;5053191;28;20114;-66
2021/03/09 05:40:23;;;;;;;15.00;6.85;;;4.90;99.90;;;;;;5051997;28;20041;-67
2021/03/09 05:43:19;;;;;;;15.52;7.13;;;4.90;99.90;;;;;;5053646;28;20041;-66
2021/03/09 05:46:11;;;;;;;14.82;6.68;;;4.90;99.90;;;;;;5054876;28;20485;-66
2021/03/09 05:59:44;;;;;;;13.05;6.22;;;4.90;99.90;;;;;;5055965;28;20043;-66
2021/03/09 06:02:24;;;;;;;16.55;7.47;;;5.00;99.90;;;;;;5043811;28;20045;-66
2021/03/09 06:05:15;;;;;;;13.93;6.70;;;4.90;99.90;;;;;;5057532;28;20225;-67
2021/03/09 06:07:45;;;;;;;13.38;6.35;;;5.00;99.90;;;;;;5053458;28;20045;-66
2021/03/09 06:10:27;;;;;;;14.75;6.90;;;5.00;99.90;;;;;;5056787;28;20053;-66
2021/03/09 06:13:06;;;;;;;17.58;6.70;;;5.00;99.90;;;;;;5056722;28;20045;-66
2021/03/09 06:19:56;;;;;;;15.30;6.47;;;5.00;99.90;;;;;;5042143;28;20084;-66
2021/03/09 06:22:39;;;;;;;15.85;6.03;;;5.00;99.90;;;;;;5050999;28;20041;-67
2021/03/09 06:25:09;;;;;;;18.35;7.55;;;5.10;99.90;;;;;;5056510;28;20112;-66
2021/03/09 06:27:38;;;;;;;19.58;8.27;;;5.00;99.90;;;;;;5056835;28;20109;-66
2021/03/09 06:30:36;;;;;;;15.13;7.03;;;5.00;99.90;;;;;;5036618;28;20045;-66
2021/03/09 06:33:07;;;;;;;13.50;6.47;;;5.00;99.90;;;;;;5045345;28;20045;-66
2021/03/09 06:35:43;;;;;;;16.40;7.00;;;5.10;99.90;;;;;;5056391;28;20485;-66
2021/03/09 06:41:50;;;;;;;12.95;6.07;;;5.10;99.90;;;;;;5055670;28;20032;-66
2021/03/09 06:45:00;;;;;;;18.67;7.75;;;5.10;99.90;;;;;;5056218;28;20508;-66
2021/03/09 06:47:52;;;;;;;18.27;6.80;;;5.10;99.90;;;;;;5050541;28;20397;-66
2021/03/09 06:50:34;;;;;;;16.13;6.43;;;5.10;99.90;;;;;;5056234;28;20381;-66
2021/03/09 06:53:37;;;;;;;15.98;6.72;;;5.10;99.90;;;;;;5055098;28;20102;-66
2021/03/09 07:00:10;;;;;;;14.80;6.65;;;5.20;99.90;;;;;;4995105;28;20118;-66
2021/03/09 07:03:12;;;;;;;14.10;6.78;;;5.20;99.90;;;;;;4987690;28;20053;-66
2021/03/09 07:05:55;;;;;;;18.17;7.70;;;5.30;99.90;;;;;;5009881;28;20111;-66
2021/03/09 07:12:34;;;;;;;15.77;6.57;;;5.30;99.90;;;;;;5033632;28;20044;-67
2021/03/09 07:15:09;;;;;;;17.65;7.30;;;5.30;99.90;;;;;;5018223;28;20162;-67
2021/03/09 07:17:38;;;;;;;21.20;8.32;;;5.40;99.90;;;;;;5044103;28;20053;-67
2021/03/09 07:20:09;;;;;;;19.10;8.77;;;5.40;99.90;;;;;;5055612;28;20033;-67
2021/03/09 07:22:56;;;;;;;21.92;9.02;;;5.40;99.90;;;;;;5055677;28;20048;-66
2021/03/09 07:25:27;;;;;;;23.98;9.57;;;5.50;99.90;;;;;;5054372;28;20151;-67
2021/03/09 07:28:10;;;;;;;22.33;9.48;;;5.50;99.90;;;;;;5038065;28;20056;-67
2021/03/09 07:30:57;;;;;;;21.02;9.27;;;5.50;99.90;;;;;;5055357;28;20115;-67
2021/03/09 07:33:28;;;;;;;19.33;8.48;;;5.50;99.90;;;;;;5054340;28;20037;-67
2021/03/09 07:35:56;;;;;;;24.30;9.60;;;5.50;99.90;;;;;;5055264;28;20049;-69
2021/03/09 07:38:24;;;;;;;24.00;9.93;;;5.50;99.90;;;;;;5055063;28;20037;-68
2021/03/09 07:40:53;;;;;;;27.08;12.13;;;5.50;99.90;;;;;;5055105;28;20576;-69
2021/03/09 07:43:42;;;;;;;25.05;10.68;;;5.50;99.90;;;;;;5051599;28;20136;-66
2021/03/09 07:46:24;;;;;;;25.58;11.50;;;5.50;99.90;;;;;;5038358;28;20084;-66
2021/03/09 07:48:54;;;;;;;25.70;10.80;;;5.50;99.90;;;;;;5034131;28;20057;-66
2021/03/09 07:51:32;;;;;;;29.17;11.55;;;5.50;99.90;;;;;;5049693;28;20045;-66
2021/03/09 07:54:32;;;;;;;40.88;19.20;;;5.60;99.90;;;;;;5040240;28;20037;-65
2021/03/09 08:00:57;;;;;;;36.13;13.88;;;5.60;99.90;;;;;;5054503;28;20396;-65
2021/03/09 08:03:31;;;;;;;31.02;12.73;;;5.60;99.90;;;;;;5053396;28;20037;-64
2021/03/09 08:05:56;;;;;;;28.55;12.73;;;5.50;99.90;;;;;;5042023;28;20100;-67
2021/03/09 08:08:52;;;;;;;36.70;15.90;;;5.50;99.90;;;;;;5093972;28;20072;-66
2021/03/09 08:11:34;;;;;;;26.23;12.63;;;5.50;99.90;;;;;;5095014;28;20052;-66
2021/03/09 08:18:21;;;;;;;30.38;13.35;;;5.40;99.90;;;;;;5094490;28;20097;-66
2021/03/09 08:20:59;;;;;;;30.33;12.48;;;5.40;99.90;;;;;;5089649;28;20048;-70
2021/03/09 08:24:03;;;;;;;26.13;11.23;;;5.40;99.90;;;;;;5076043;28;20062;-68
2021/03/09 08:30:55;;;;;;;32.25;13.68;;;5.40;99.90;;;;;;5094200;28;20085;-68
2021/03/09 08:33:33;;;;;;;38.80;16.58;;;5.40;99.90;;;;;;5074187;28;20171;-73
2021/03/09 08:39:09;;;;;;;32.80;15.52;;;5.40;99.90;;;;;;5093988;28;20514;-70
2021/03/09 08:41:46;;;;;;;41.00;18.13;;;5.50;99.90;;;;;;5094097;28;20044;-70
2021/03/09 08:48:37;;;;;;;31.35;11.90;;;5.50;99.90;;;;;;5089403;28;20485;-71
2021/03/09 08:51:48;;;;;;;29.70;12.43;;;5.50;99.90;;;;;;5088196;28;20040;-72
2021/03/09 08:58:26;;;;;;;31.52;13.05;;;5.60;99.90;;;;;;5093645;28;20054;-71
2021/03/09 09:00:55;;;;;;;28.25;13.88;;;5.60;99.90;;;;;;5091060;28;20063;-69
2021/03/09 09:03:39;;;;;;;29.55;12.13;;;5.60;99.90;;;;;;5093764;28;20123;-71
2021/03/09 09:06:06;;;;;;;28.25;12.05;;;5.60;99.90;;;;;;5092273;28;20399;-69
2021/03/09 09:08:33;;;;;;;24.90;11.60;;;5.60;99.90;;;;;;5093602;28;20115;-69
2021/03/09 09:11:32;;;;;;;29.23;12.48;;;5.60;99.90;;;;;;5093902;28;20052;-69
2021/03/09 09:14:28;;;;;;;23.75;10.10;;;5.60;99.90;;;;;;5093177;28;20032;-69
2021/03/09 09:20:58;;;;;;;25.88;10.98;;;5.60;99.90;;;;;;5092513;28;20460;-68
2021/03/09 09:23:35;;;;;;;26.30;11.05;;;5.70;99.90;;;;;;5093502;28;20052;-71
2021/03/09 09:26:16;;;;;;;23.63;9.13;;;5.80;99.90;;;;;;5073972;28;20480;-72
2021/03/09 09:29:03;;;;;;;28.63;12.13;;;5.70;99.90;;;;;;5093283;28;20048;-70
2021/03/09 09:31:39;;;;;;;27.02;12.45;;;5.70;99.90;;;;;;5093221;28;20491;-68
2021/03/09 09:34:36;;;;;;;32.28;13.63;;;5.70;99.90;;;;;;5075923;28;20041;-72
2021/03/09 09:37:28;;;;;;;43.20;17.05;;;5.70;99.90;;;;;;5093229;28;20041;-71
2021/03/09 09:43:37;;;;;;;49.25;18.58;;;5.60;99.90;;;;;;5073845;28;20058;-69
2021/03/09 09:46:38;;;;;;;28.48;13.35;;;5.50;99.90;;;;;;5087169;28;20040;-71
2021/03/09 09:49:12;;;;;;;39.83;16.95;;;5.40;99.90;;;;;;5086938;28;20093;-68
2021/03/09 09:56:00;;;;;;;48.42;19.20;;;5.40;99.90;;;;;;5093156;28;20418;-68
2021/03/09 09:58:48;;;;;;;36.72;14.75;;;5.40;99.90;;;;;;5090684;28;20425;-69
2021/03/09 10:01:36;;;;;;;37.22;15.40;;;5.40;99.90;;;;;;5093349;28;20098;-72
2021/03/09 10:04:11;;;;;;;37.75;13.45;;;5.40;99.90;;;;;;5076517;28;20071;-68
2021/03/09 10:06:47;;;;;;;41.28;18.05;;;5.40;99.90;;;;;;5091755;28;20060;-68
2021/03/09 10:09:23;;;;;;;32.97;13.55;;;5.40;99.90;;;;;;5092904;28;20411;-67
2021/03/09 10:12:00;;;;;;;29.35;13.10;;;5.50;99.90;;;;;;5087587;28;20118;-68
2021/03/09 10:14:32;;;;;;;33.13;13.90;;;5.50;99.90;;;;;;5093309;28;20036;-68
2021/03/09 10:21:14;;;;;;;26.33;11.05;;;5.50;99.90;;;;;;5092807;28;20031;-70
2021/03/09 10:27:59;;;;;;;25.95;11.05;;;5.40;99.90;;;;;;5079161;28;20066;-67
2021/03/09 10:31:08;;;;;;;21.35;8.50;;;5.50;99.90;;;;;;5072245;28;20040;-67
2021/03/09 10:33:39;;;;;;;36.55;14.70;;;5.60;99.90;;;;;;5075014;28;20051;-68
2021/03/09 10:36:10;;;;;;;42.45;17.58;;;5.60;99.90;;;;;;5096713;28;20380;-67
2021/03/09 10:38:42;;;;;;;44.42;17.10;;;5.50;99.90;;;;;;5096355;28;20036;-68
2021/03/09 10:41:25;;;;;;;31.70;12.40;;;5.50;99.90;;;;;;5076465;28;20133;-68
2021/03/09 10:47:32;;;;;;;31.15;13.80;;;5.60;99.90;;;;;;5087321;28;20487;-67
2021/03/09 10:50:09;;;;;;;23.70;10.68;;;5.60;99.90;;;;;;5078206;28;20040;-67
2021/03/09 10:56:09;;;;;;;32.15;13.88;;;5.60;99.90;;;;;;5090883;28;20105;-66
2021/03/09 10:58:41;;;;;;;26.65;10.82;;;5.60;99.90;;;;;;5090649;28;20040;-66
2021/03/09 11:01:13;;;;;;;31.92;13.60;;;5.60;99.90;;;;;;5076268;28;20071;-70
2021/03/09 11:03:45;;;;;;;30.58;12.90;;;5.60;99.90;;;;;;5058194;28;20040;-69
2021/03/09 11:06:14;;;;;;;24.90;11.30;;;5.60;99.90;;;;;;5084580;28;20052;-70
2021/03/09 11:09:04;;;;;;;19.77;9.13;;;5.60;99.90;;;;;;5095704;28;20052;-70
2021/03/09 11:11:46;;;;;;;35.45;12.18;;;5.60;99.90;;;;;;5095891;28;20048;-69
2021/03/09 11:18:43;;;;;;;46.08;17.48;;;5.70;99.90;;;;;;5095683;28;20075;-69
2021/03/09 11:21:09;;;;;;;38.40;14.98;;;5.60;99.90;;;;;;5077808;28;20044;-68
2021/03/09 11:23:41;;;;;;;38.20;14.13;;;5.60;99.90;;;;;;5061258;28;20047;-69
2021/03/09 11:26:13;;;;;;;39.00;15.05;;;5.60;99.90;;;;;;5075826;28;20094;-70
2021/03/09 11:28:39;;;;;;;29.85;12.77;;;5.50;99.90;;;;;;5072863;28;20044;-69
2021/03/09 11:31:14;;;;;;;41.25;16.60;;;5.50;99.90;;;;;;5075433;28;20036;-67
2021/03/09 11:34:16;;;;;;;32.30;13.52;;;5.50;99.90;;;;;;5056919;28;20048;-67
2021/03/09 11:36:48;;;;;;;33.95;13.57;;;5.50;99.90;;;;;;5094848;28;20040;-68
2021/03/09 11:39:35;;;;;;;31.33;13.05;;;5.60;99.90;;;;;;5095232;28;20040;-66
2021/03/09 11:46:08;;;;;;;24.75;11.48;;;5.70;99.90;;;;;;5095172;28;20035;-68
2021/03/09 11:48:46;;;;;;;21.83;10.38;;;5.80;99.90;;;;;;5095245;28;20047;-67
2021/03/09 11:51:18;;;;;;;23.90;11.93;;;5.90;99.90;;;;;;5077277;28;20110;-68
2021/03/09 11:53:53;;;;;;;21.67;10.25;;;5.90;99.90;;;;;;5058203;28;20056;-67
2021/03/09 12:00:34;;;;;;;22.00;10.63;;;5.90;99.90;;;;;;5094988;28;20419;-66
2021/03/09 12:03:03;;;;;;;24.58;10.18;;;5.80;99.90;;;;;;5076798;28;20055;-67
2021/03/09 12:06:09;;;;;;;19.52;9.60;;;5.80;99.90;;;;;;5095072;28;20048;-68
2021/03/09 12:08:41;;;;;;;21.48;10.23;;;5.70;99.90;;;;;;5074207;28;20090;-68
2021/03/09 12:11:11;;;;;;;26.65;11.07;;;5.60;99.90;;;;;;5074650;28;20048;-69
2021/03/09 12:13:52;;;;;;;26.60;10.68;;;5.60;99.90;;;;;;5092944;28;20066;-67
2021/03/09 12:16:30;;;;;;;41.25;13.95;;;5.60;99.90;;;;;;5090474;28;20123;-65
2021/03/09 12:18:58;;;;;;;27.02;11.70;;;5.60;99.90;;;;;;5085200;28;20044;-69
2021/03/09 12:22:13;;;;;;;18.52;9.48;;;5.70;99.90;;;;;;5094621;28;20470;-66
2021/03/09 12:24:43;;;;;;;16.98;8.75;;;5.70;99.90;;;;;;5083132;28;20047;-67
2021/03/09 12:27:16;;;;;;;19.13;8.88;;;5.70;99.90;;;;;;5082622;28;20054;-66
2021/03/09 12:29:51;;;;;;;20.10;10.43;;;5.80;99.90;;;;;;5094248;28;20372;-67
2021/03/09 12:35:49;;;;;;;22.58;10.43;;;5.70;99.90;;;;;;5094092;28;20048;-67
2021/03/09 12:38:16;;;;;;;15.90;8.55;;;5.80;99.90;;;;;;5088458;28;20044;-68
2021/03/09 12:40:48;;;;;;;16.75;8.77;;;5.80;99.90;;;;;;5094479;28;20074;-69
2021/03/09 12:43:18;;;;;;;18.35;8.90;;;5.90;99.90;;;;;;5087536;28;20081;-68
2021/03/09 12:53:21;;;;;;;19.85;8.95;;;5.80;99.90;;;;;;5093902;28;20039;-67
2021/03/09 12:55:52;;;;;;;16.35;8.55;;;5.80;99.90;;;;;;5073802;28;20036;-70
2021/03/09 12:58:20;;;;;;;24.42;10.85;;;5.90;99.90;;;;;;5069800;28;20044;-67
2021/03/09 13:00:49;;;;;;;23.48;10.45;;;5.80;99.90;;;;;;5094564;28;20081;-66
2021/03/09 13:03:24;;;;;;;20.65;10.95;;;5.80;99.90;;;;;;5087388;28;20040;-66
2021/03/09 13:05:51;;;;;;;21.73;9.35;;;5.90;99.90;;;;;;5056057;28;20040;-66
2021/03/09 13:08:17;;;;;;;21.08;9.23;;;5.80;99.90;;;;;;5093924;28;20072;-67
2021/03/09 13:10:51;;;;;;;17.17;8.65;;;5.80;99.90;;;;;;5093765;28;20063;-66
2021/03/09 13:13:54;;;;;;;17.85;9.88;;;5.90;99.90;;;;;;5093636;28;20476;-67
2021/03/09 13:16:36;;;;;;;21.38;10.00;;;5.90;99.90;;;;;;5077598;28;20400;-68
2021/03/09 13:19:08;;;;;;;24.73;12.35;;;5.90;99.90;;;;;;5079985;28;20388;-66
2021/03/09 13:25:48;;;;;;;19.58;9.82;;;5.90;99.90;;;;;;5093342;28;20073;-69
2021/03/09 13:28:20;;;;;;;20.52;9.85;;;5.90;99.90;;;;;;5073386;28;20040;-68
2021/03/09 13:30:52;;;;;;;27.42;12.90;;;5.90;99.90;;;;;;5073595;28;20045;-68
2021/03/09 13:33:23;;;;;;;22.38;11.18;;;5.90;99.90;;;;;;5081335;28;20062;-69
2021/03/09 13:35:56;;;;;;;24.45;11.82;;;5.90;99.90;;;;;;5091404;28;20051;-68
2021/03/09 13:38:22;;;;;;;23.48;12.18;;;5.80;99.90;;;;;;5093899;28;20054;-66
2021/03/09 13:40:54;;;;;;;24.23;11.80;;;5.90;99.90;;;;;;5087196;28;20040;-69
2021/03/09 13:43:23;;;;;;;23.02;10.32;;;5.90;99.90;;;;;;5075347;28;20050;-68
2021/03/09 13:46:04;;;;;;;22.00;10.75;;;5.90;99.90;;;;;;5094604;28;20048;-67
2021/03/09 13:48:30;;;;;;;27.80;13.50;;;5.90;99.90;;;;;;5093161;28;20047;-68
2021/03/09 13:51:05;;;;;;;26.25;12.85;;;5.90;99.90;;;;;;5093346;28;20438;-67
2021/03/09 13:53:49;;;;;;;22.63;11.07;;;5.90;99.90;;;;;;5093755;28;20052;-68
2021/03/09 13:56:35;;;;;;;25.45;12.57;;;5.90;99.90;;;;;;5057885;28;20052;-69
2021/03/09 14:03:19;;;;;;;27.90;12.50;;;5.90;99.90;;;;;;5093031;28;20471;-67
2021/03/09 14:06:16;;;;;;;26.70;11.77;;;5.90;99.90;;;;;;5093304;28;20483;-68
2021/03/09 14:08:48;;;;;;;21.80;9.73;;;5.90;99.90;;;;;;5097030;28;20446;-68
2021/03/09 14:11:14;;;;;;;19.55;10.35;;;5.90;99.90;;;;;;5097085;28;20604;-68
2021/03/09 14:14:07;;;;;;;18.85;9.45;;;5.90;99.90;;;;;;5096903;28;20036;-68
2021/03/09 14:24:04;;;;;;;14.57;6.68;;;5.90;99.90;;;;;;5073853;28;20059;-67
2021/03/09 14:30:50;;;;;;;16.63;8.35;;;5.90;99.90;;;;;;5095423;28;20115;-65
2021/03/09 14:33:28;;;;;;;14.57;7.35;;;5.90;99.90;;;;;;5092176;28;20036;-66
2021/03/09 14:36:20;;;;;;;11.10;6.35;;;5.90;99.90;;;;;;5074938;28;20067;-69
2021/03/09 14:43:20;;;;;;;10.70;5.45;;;5.80;99.90;;;;;;5096525;28;20058;-65
2021/03/09 14:45:52;;;;;;;10.48;6.18;;;5.80;99.90;;;;;;5091856;28;20040;-66
2021/03/09 14:48:56;;;;;;;9.98;4.85;;;5.70;99.90;;;;;;5096075;28;20051;-66
2021/03/09 14:51:29;;;;;;;9.18;5.43;;;5.70;99.90;;;;;;5063227;28;20064;-68
2021/03/09 14:58:23;;;;;;;7.97;4.57;;;5.70;99.90;;;;;;5081223;28;20396;-66
2021/03/09 15:00:50;;;;;;;7.78;4.75;;;5.70;99.90;;;;;;5090746;28;20123;-67
2021/03/09 15:03:21;;;;;;;8.70;5.03;;;5.70;99.90;;;;;;5096027;28;20040;-66
2021/03/09 15:05:50;;;;;;;12.60;6.82;;;5.80;99.90;;;;;;5095982;28;20040;-70
2021/03/09 15:08:40;;;;;;;8.82;5.05;;;5.80;99.90;;;;;;5096200;28;20052;-66
2021/03/09 15:11:10;;;;;;;11.70;7.07;;;5.80;99.90;;;;;;5095934;28;20531;-70
2021/03/09 15:20:56;;;;;;;12.75;6.18;;;5.80;99.90;;;;;;5095920;28;20051;-65
2021/03/09 15:23:41;;;;;;;10.95;6.10;;;5.70;99.90;;;;;;5095476;28;20522;-66
2021/03/09 15:26:12;;;;;;;9.82;5.47;;;5.60;99.90;;;;;;5077741;28;20037;-67
2021/03/09 15:28:57;;;;;;;10.98;6.43;;;5.60;99.90;;;;;;5096123;28;20459;-68
2021/03/09 15:31:41;;;;;;;9.32;5.07;;;5.50;99.90;;;;;;5058060;28;20041;-65
2021/03/09 15:40:52;;;;;;;11.80;6.25;;;5.60;99.90;;;;;;5090320;28;20054;-66
2021/03/09 15:43:21;;;;;;;13.45;6.10;;;5.60;99.90;;;;;;5089044;28;20097;-66
2021/03/09 15:45:52;;;;;;;11.75;6.10;;;5.60;99.90;;;;;;5091504;28;20376;-66
2021/03/09 15:48:25;;;;;;;9.23;5.45;;;5.50;99.90;;;;;;5075533;28;20048;-67
2021/03/09 15:51:22;;;;;;;9.85;5.63;;;5.50;99.90;;;;;;5090059;28;20063;-67
2021/03/09 15:53:56;;;;;;;9.40;6.00;;;5.50;99.90;;;;;;5077387;28;20056;-66
2021/03/09 16:03:23;;;;;;;10.98;5.95;;;5.40;99.90;;;;;;5088335;28;20105;-64
2021/03/09 16:06:04;;;;;;;7.60;4.75;;;5.40;99.90;;;;;;5073557;28;20040;-68
2021/03/09 16:08:54;;;;;;;7.82;4.97;;;5.40;99.90;;;;;;5089916;28;20060;-68
2021/03/09 16:11:40;;;;;;;10.55;5.68;;;5.40;99.90;;;;;;5078692;28;20043;-66
2021/03/09 16:14:12;;;;;;;10.48;5.85;;;5.40;99.90;;;;;;5081219;28;20044;-69
2021/03/09 16:17:06;;;;;;;7.25;4.55;;;5.40;99.90;;;;;;5094518;28;20067;-64
2021/03/09 16:19:53;;;;;;;8.10;5.25;;;5.40;99.90;;;;;;5085125;28;20075;-65
2021/03/09 16:25:58;;;;;;;7.97;4.68;;;5.40;99.90;;;;;;5091312;28;20391;-64
2021/03/09 16:28:25;;;;;;;9.07;5.00;;;5.30;99.90;;;;;;5090972;28;20480;-63
2021/03/09 16:31:00;;;;;;;8.07;5.00;;;5.20;99.90;;;;;;5094495;28;20101;-65
2021/03/09 16:33:35;;;;;;;8.07;4.63;;;5.30;99.90;;;;;;5094544;28;20071;-66
2021/03/09 16:36:03;;;;;;;7.50;4.57;;;5.20;99.90;;;;;;5094206;28;20036;-64
2021/03/09 16:38:49;;;;;;;7.75;4.43;;;5.30;99.90;;;;;;5059523;28;20048;-68
2021/03/09 16:41:32;;;;;;;7.95;4.32;;;5.30;99.90;;;;;;5077729;28;20048;-65
2021/03/09 16:48:20;;;;;;;9.05;4.90;;;5.30;99.90;;;;;;5094029;28;20050;-65
2021/03/09 16:50:51;;;;;;;8.18;4.55;;;5.30;99.90;;;;;;5073999;28;20048;-65
2021/03/09 17:00:40;;;;;;;8.43;4.28;;;5.20;99.90;;;;;;5090963;28;20039;-67
2021/03/09 17:03:15;;;;;;;9.60;5.25;;;5.20;99.90;;;;;;5086299;28;20070;-68
2021/03/09 17:05:44;;;;;;;9.65;5.20;;;5.20;99.90;;;;;;5089096;28;20040;-66
2021/03/09 17:08:12;;;;;;;8.98;4.28;;;5.20;99.90;;;;;;5083114;28;20113;-67
2021/03/09 17:10:49;;;;;;;8.18;4.50;;;5.20;99.90;;;;;;5094295;28;20490;-65
2021/03/09 17:13:17;;;;;;;8.15;4.80;;;5.20;99.90;;;;;;5075735;28;20500;-66
2021/03/09 17:15:44;;;;;;;8.85;4.35;;;5.30;99.90;;;;;;5093827;28;20071;-68
2021/03/09 17:18:16;;;;;;;10.07;5.15;;;5.30;99.90;;;;;;5093844;28;20044;-65
2021/03/09 17:20:49;;;;;;;10.75;6.20;;;5.30;99.90;;;;;;5088708;28;20108;-63
2021/03/09 17:23:24;;;;;;;11.57;5.82;;;5.20;99.90;;;;;;5093620;28;20050;-63
2021/03/09 17:25:52;;;;;;;13.30;7.43;;;5.20;99.90;;;;;;5093609;28;20044;-66
2021/03/09 17:28:18;;;;;;;13.90;7.00;;;5.20;99.90;;;;;;5093500;28;20432;-64
2021/03/09 17:30:48;;;;;;;11.18;5.65;;;5.20;99.90;;;;;;5075878;28;20040;-67
2021/03/09 17:33:20;;;;;;;11.15;6.25;;;5.10;99.90;;;;;;5086490;28;20040;-65
2021/03/09 17:43:25;;;;;;;9.25;4.90;;;5.10;99.90;;;;;;5092768;28;20089;-64
2021/03/09 17:45:52;;;;;;;12.68;5.63;;;5.10;99.90;;;;;;5089279;28;20052;-65